createdAt,value
2023-03-10T00:01:44.282Z,94.19
2023-03-10T00:12:06.373Z,93.69
2023-03-10T00:22:27.895Z,93.94
2023-03-10T00:32:50.874Z,94.14
2023-03-10T00:43:12.443Z,94.03
2023-03-10T00:53:35.245Z,93.37
2023-03-10T01:03:59.728Z,93.43
2023-03-10T01:14:21.532Z,93.51
2023-03-10T01:24:43.023Z,93.95
2023-03-10T01:35:05.775Z,93.84
2023-03-10T01:45:27.224Z,93.61
2023-03-10T01:55:55.984Z,94.28
2023-03-10T02:06:20.061Z,94.12
2023-03-10T02:16:41.786Z,94.18
2023-03-10T02:27:27.093Z,94.14
2023-03-10T02:37:50.764Z,94.83
2023-03-10T02:48:16.286Z,94.76
2023-03-10T02:58:37.817Z,94.85
2023-03-10T03:08:59.417Z,94.98
2023-03-10T03:19:20.940Z,94.91
2023-03-10T03:29:42.422Z,95.55
2023-03-10T03:40:12.772Z,95.53
2023-03-10T03:50:34.348Z,96.05
2023-03-10T04:00:55.874Z,95.58
2023-03-10T04:11:17.422Z,95.60
2023-03-10T04:21:38.980Z,96.41
2023-03-10T04:32:05.576Z,96.30
2023-03-10T04:42:28.111Z,96.32
2023-03-10T04:52:50.199Z,96.24
2023-03-10T05:03:11.726Z,96.69
2023-03-10T05:13:33.281Z,97.01
2023-03-10T05:23:54.784Z,96.97
2023-03-10T05:34:16.413Z,96.74
2023-03-10T05:44:38.897Z,96.48
2023-03-10T05:55:00.469Z,96.52
2023-03-10T06:05:21.994Z,96.36
2023-03-10T06:15:43.465Z,96.33
2023-03-10T06:26:12.020Z,96.59
2023-03-10T06:36:33.615Z,96.40
2023-03-10T06:46:55.121Z,96.24
2023-03-10T06:57:18.151Z,96.54
2023-03-10T07:07:41.567Z,96.44
2023-03-10T07:18:03.132Z,96.88
2023-03-10T07:28:25.796Z,96.76
2023-03-10T07:38:47.957Z,97.09
2023-03-10T07:49:09.635Z,96.85
2023-03-10T07:59:31.126Z,96.65
2023-03-10T08:09:53.280Z,97.02
2023-03-10T08:20:15.102Z,96.93
2023-03-10T08:30:52.479Z,97.56
2023-03-10T08:41:26.458Z,96.59
2023-03-10T08:51:49.476Z,96.10
2023-03-10T09:02:15.139Z,95.73
2023-03-10T09:12:39.122Z,95.40
2023-03-10T09:23:00.799Z,95.22
2023-03-10T09:33:22.277Z,95.30
2023-03-10T09:43:50.399Z,95.92
2023-03-10T09:54:34.482Z,95.34
2023-03-10T10:04:58.352Z,95.89
2023-03-10T10:15:22.575Z,95.49
2023-03-10T10:25:43.938Z,95.18
2023-03-10T10:36:05.750Z,94.49
2023-03-10T10:46:29.649Z,94.63
2023-03-10T10:57:01.260Z,94.67
2023-03-10T11:07:27.395Z,94.51
2023-03-10T11:17:58.101Z,94.59
2023-03-10T11:28:31.387Z,94.34
2023-03-10T11:38:55.448Z,94.45
2023-03-10T11:49:17.361Z,94.99
2023-03-10T11:59:44.260Z,94.23
2023-03-10T12:10:11.877Z,94.79
2023-03-10T12:20:34.719Z,94.57
2023-03-10T12:30:59.269Z,94.35
2023-03-10T12:41:26.847Z,95.10
2023-03-10T12:51:51.917Z,94.38
2023-03-10T13:02:35.663Z,94.39
2023-03-10T13:13:00.606Z,93.97
2023-03-10T13:23:22.644Z,94.59
2023-03-10T13:33:52.970Z,94.19
2023-03-10T13:44:25.984Z,94.71
2023-03-10T13:54:47.787Z,94.44
2023-03-10T14:05:29.092Z,94.79
2023-03-10T14:15:54.971Z,95.21
2023-03-10T14:26:16.766Z,95.67
2023-03-10T14:36:38.362Z,95.55
2023-03-10T14:47:00.708Z,95.75
2023-03-10T14:57:22.871Z,95.79
2023-03-10T15:07:44.387Z,96.60
2023-03-10T15:18:06.122Z,96.55
2023-03-10T15:28:27.607Z,96.56
2023-03-10T15:38:48.973Z,96.68
2023-03-10T15:49:10.299Z,97.80
2023-03-10T15:59:34.126Z,97.38
2023-03-10T16:09:55.527Z,97.32
2023-03-10T16:20:19.115Z,97.99
2023-03-10T16:30:40.484Z,97.52
2023-03-10T16:41:02.362Z,97.56
2023-03-10T16:51:23.773Z,98.39
2023-03-10T17:01:45.474Z,98.36
2023-03-10T17:12:07.051Z,97.86
2023-03-10T17:22:28.621Z,97.61
2023-03-10T17:32:50.043Z,98.14
2023-03-10T17:43:23.338Z,97.83
2023-03-10T17:53:54.171Z,97.82
2023-03-10T18:04:16.236Z,97.64
2023-03-10T18:25:08.908Z,96.90
2023-03-10T18:35:30.359Z,97.62
2023-03-10T18:45:51.973Z,98.04
2023-03-10T18:56:13.382Z,97.62
2023-03-10T19:06:34.821Z,96.81
2023-03-10T19:16:56.194Z,98.14
2023-03-10T19:27:17.632Z,97.82
2023-03-10T19:37:42.807Z,97.90
2023-03-10T19:48:04.307Z,98.12
2023-03-10T19:58:26.129Z,98.27
2023-03-10T20:08:47.585Z,97.47
2023-03-10T20:19:08.930Z,97.73
2023-03-10T20:29:30.432Z,97.45
2023-03-10T20:39:51.814Z,97.68
2023-03-10T20:50:13.394Z,97.55
2023-03-10T21:00:34.802Z,97.73
2023-03-10T21:10:56.185Z,97.48
2023-03-10T21:21:17.622Z,96.93
2023-03-10T21:31:38.991Z,97.31
2023-03-10T21:42:00.343Z,96.57
2023-03-10T21:52:21.744Z,96.20
2023-03-10T22:02:43.264Z,95.98
2023-03-10T22:13:04.732Z,96.01
2023-03-10T22:23:26.115Z,95.56
2023-03-10T22:33:47.608Z,95.64
2023-03-10T22:44:08.966Z,95.45
2023-03-10T22:54:30.330Z,95.77
2023-03-10T23:04:51.685Z,95.53
2023-03-10T23:15:24.825Z,95.13
2023-03-10T23:25:48.188Z,94.65
2023-03-10T23:36:11.670Z,94.96
2023-03-10T23:46:33.169Z,95.36
2023-03-10T23:56:54.529Z,95.39
